sensor_id;sensor_type;location;lat;lon;timestamp;P1;durP1;ratioP1;P2;durP2;ratioP2
39032;SDS011;24794;51.982;5.878;2022-11-23T00:00:41;7.65;;;3.92;;
39032;SDS011;24794;51.982;5.878;2022-11-23T00:01:42;13.60;;;4.25;;
39032;SDS011;24794;51.982;5.878;2022-11-23T00:02:43;6.10;;;3.55;;
39032;SDS011;24794;51.982;5.878;2022-11-23T00:03:44;10.00;;;3.20;;
39032;SDS011;24794;51.982;5.878;2022-11-23T00:04:46;7.10;;;3.50;;
39032;SDS011;24794;51.982;5.878;2022-11-23T00:05:46;12.55;;;4.07;;
39032;SDS011;24794;51.982;5.878;2022-11-23T00:06:47;11.23;;;4.72;;
39032;SDS011;24794;51.982;5.878;2022-11-23T00:07:47;9.05;;;3.75;;
39032;SDS011;24794;51.982;5.878;2022-11-23T00:08:48;8.32;;;3.42;;
39032;SDS011;24794;51.982;5.878;2022-11-23T00:09:49;7.07;;;3.85;;
39032;SDS011;24794;51.982;5.878;2022-11-23T00:10:50;9.07;;;3.15;;
39032;SDS011;24794;51.982;5.878;2022-11-23T00:11:50;11.00;;;4.38;;
39032;SDS011;24794;51.982;5.878;2022-11-23T00:12:51;6.97;;;3.50;;
39032;SDS011;24794;51.982;5.878;2022-11-23T00:13:51;12.38;;;4.30;;
39032;SDS011;24794;51.982;5.878;2022-11-23T00:14:53;7.03;;;3.33;;
39032;SDS011;24794;51.982;5.878;2022-11-23T00:15:53;5.53;;;3.15;;
39032;SDS011;24794;51.982;5.878;2022-11-23T00:16:54;10.63;;;3.75;;
39032;SDS011;24794;51.982;5.878;2022-11-23T00:17:54;9.77;;;3.30;;
39032;SDS011;24794;51.982;5.878;2022-11-23T00:18:56;6.22;;;3.20;;
39032;SDS011;24794;51.982;5.878;2022-11-23T00:19:58;13.27;;;4.00;;
39032;SDS011;24794;51.982;5.878;2022-11-23T00:20:58;6.75;;;3.20;;
39032;SDS011;24794;51.982;5.878;2022-11-23T00:21:59;11.90;;;4.00;;
39032;SDS011;24794;51.982;5.878;2022-11-23T00:22:59;11.68;;;5.13;;
39032;SDS011;24794;51.982;5.878;2022-11-23T00:24:00;9.00;;;4.13;;
39032;SDS011;24794;51.982;5.878;2022-11-23T00:25:01;10.95;;;4.22;;
39032;SDS011;24794;51.982;5.878;2022-11-23T00:26:01;7.80;;;3.88;;
39032;SDS011;24794;51.982;5.878;2022-11-23T00:27:03;14.02;;;4.78;;
39032;SDS011;24794;51.982;5.878;2022-11-23T00:28:03;12.27;;;4.20;;
39032;SDS011;24794;51.982;5.878;2022-11-23T00:29:04;15.30;;;5.22;;
39032;SDS011;24794;51.982;5.878;2022-11-23T00:30:04;9.55;;;4.25;;
39032;SDS011;24794;51.982;5.878;2022-11-23T00:31:06;13.63;;;5.13;;
39032;SDS011;24794;51.982;5.878;2022-11-23T00:32:07;13.25;;;5.13;;
39032;SDS011;24794;51.982;5.878;2022-11-23T00:33:08;9.80;;;4.90;;
39032;SDS011;24794;51.982;5.878;2022-11-23T00:34:09;17.00;;;6.72;;
39032;SDS011;24794;51.982;5.878;2022-11-23T00:35:09;12.45;;;5.80;;
39032;SDS011;24794;51.982;5.878;2022-11-23T00:36:11;14.82;;;6.53;;
39032;SDS011;24794;51.982;5.878;2022-11-23T00:37:13;16.65;;;5.72;;
39032;SDS011;24794;51.982;5.878;2022-11-23T00:38:14;12.80;;;5.85;;
39032;SDS011;24794;51.982;5.878;2022-11-23T00:39:14;11.48;;;4.82;;
39032;SDS011;24794;51.982;5.878;2022-11-23T00:40:15;12.65;;;5.25;;
39032;SDS011;24794;51.982;5.878;2022-11-23T00:41:25;17.80;;;6.60;;
39032;SDS011;24794;51.982;5.878;2022-11-23T00:42:26;12.85;;;5.05;;
39032;SDS011;24794;51.982;5.878;2022-11-23T00:43:27;13.27;;;5.40;;
39032;SDS011;24794;51.982;5.878;2022-11-23T00:44:28;11.50;;;5.70;;
39032;SDS011;24794;51.982;5.878;2022-11-23T00:45:29;11.25;;;4.75;;
39032;SDS011;24794;51.982;5.878;2022-11-23T00:46:30;14.43;;;5.93;;
39032;SDS011;24794;51.982;5.878;2022-11-23T00:47:30;20.58;;;6.35;;
39032;SDS011;24794;51.982;5.878;2022-11-23T00:48:31;13.68;;;5.82;;
39032;SDS011;24794;51.982;5.878;2022-11-23T00:49:31;14.23;;;6.75;;
39032;SDS011;24794;51.982;5.878;2022-11-23T00:50:32;11.98;;;5.75;;
39032;SDS011;24794;51.982;5.878;2022-11-23T00:51:33;11.82;;;5.90;;
39032;SDS011;24794;51.982;5.878;2022-11-23T00:52:35;12.45;;;5.72;;
39032;SDS011;24794;51.982;5.878;2022-11-23T00:53:36;12.02;;;6.05;;
39032;SDS011;24794;51.982;5.878;2022-11-23T00:54:36;12.32;;;5.30;;
39032;SDS011;24794;51.982;5.878;2022-11-23T00:55:37;10.57;;;5.25;;
39032;SDS011;24794;51.982;5.878;2022-11-23T00:56:38;13.68;;;5.55;;
39032;SDS011;24794;51.982;5.878;2022-11-23T00:57:39;10.20;;;5.07;;
39032;SDS011;24794;51.982;5.878;2022-11-23T00:58:39;17.08;;;6.85;;
39032;SDS011;24794;51.982;5.878;2022-11-23T00:59:40;13.23;;;6.28;;
39032;SDS011;24794;51.982;5.878;2022-11-23T01:00:41;11.80;;;6.13;;
39032;SDS011;24794;51.982;5.878;2022-11-23T01:01:41;18.33;;;6.65;;
39032;SDS011;24794;51.982;5.878;2022-11-23T01:02:42;14.60;;;6.70;;
39032;SDS011;24794;51.982;5.878;2022-11-23T01:03:44;11.88;;;5.85;;
39032;SDS011;24794;51.982;5.878;2022-11-23T01:04:49;15.05;;;5.97;;
39032;SDS011;24794;51.982;5.878;2022-11-23T01:05:49;13.70;;;5.50;;
39032;SDS011;24794;51.982;5.878;2022-11-23T01:06:53;9.43;;;4.95;;
39032;SDS011;24794;51.982;5.878;2022-11-23T01:07:56;13.38;;;6.07;;
39032;SDS011;24794;51.982;5.878;2022-11-23T01:09:00;12.07;;;6.53;;
39032;SDS011;24794;51.982;5.878;2022-11-23T01:10:04;14.43;;;6.43;;
39032;SDS011;24794;51.982;5.878;2022-11-23T01:11:09;12.00;;;5.55;;
39032;SDS011;24794;51.982;5.878;2022-11-23T01:12:11;12.60;;;6.15;;
39032;SDS011;24794;51.982;5.878;2022-11-23T01:13:11;17.63;;;6.28;;
39032;SDS011;24794;51.982;5.878;2022-11-23T01:14:12;13.27;;;5.22;;
39032;SDS011;24794;51.982;5.878;2022-11-23T01:15:12;16.30;;;6.15;;
39032;SDS011;24794;51.982;5.878;2022-11-23T01:16:17;10.45;;;5.68;;
39032;SDS011;24794;51.982;5.878;2022-11-23T01:17:20;15.07;;;5.78;;
39032;SDS011;24794;51.982;5.878;2022-11-23T01:18:21;12.93;;;5.50;;
39032;SDS011;24794;51.982;5.878;2022-11-23T01:19:22;14.55;;;5.72;;
39032;SDS011;24794;51.982;5.878;2022-11-23T01:20:24;10.82;;;5.57;;
39032;SDS011;24794;51.982;5.878;2022-11-23T01:21:25;22.27;;;6.82;;
39032;SDS011;24794;51.982;5.878;2022-11-23T01:22:26;13.38;;;5.60;;
39032;SDS011;24794;51.982;5.878;2022-11-23T01:23:27;12.23;;;5.22;;
39032;SDS011;24794;51.982;5.878;2022-11-23T01:24:29;19.85;;;6.38;;
39032;SDS011;24794;51.982;5.878;2022-11-23T01:25:29;22.40;;;6.57;;
39032;SDS011;24794;51.982;5.878;2022-11-23T01:26:31;15.85;;;6.35;;
39032;SDS011;24794;51.982;5.878;2022-11-23T01:27:32;16.27;;;5.80;;
39032;SDS011;24794;51.982;5.878;2022-11-23T01:28:33;14.38;;;5.47;;
39032;SDS011;24794;51.982;5.878;2022-11-23T01:29:35;16.02;;;6.25;;
39032;SDS011;24794;51.982;5.878;2022-11-23T01:30:35;15.30;;;5.65;;
39032;SDS011;24794;51.982;5.878;2022-11-23T01:31:36;12.38;;;4.97;;
39032;SDS011;24794;51.982;5.878;2022-11-23T01:32:37;16.85;;;5.10;;
39032;SDS011;24794;51.982;5.878;2022-11-23T01:33:38;16.05;;;5.22;;
39032;SDS011;24794;51.982;5.878;2022-11-23T01:34:39;16.95;;;5.80;;
39032;SDS011;24794;51.982;5.878;2022-11-23T01:35:39;15.50;;;5.85;;
39032;SDS011;24794;51.982;5.878;2022-11-23T01:36:40;22.02;;;6.03;;
39032;SDS011;24794;51.982;5.878;2022-11-23T01:37:41;18.67;;;6.95;;
39032;SDS011;24794;51.982;5.878;2022-11-23T01:38:42;15.95;;;5.10;;
39032;SDS011;24794;51.982;5.878;2022-11-23T01:39:43;14.85;;;4.80;;
39032;SDS011;24794;51.982;5.878;2022-11-23T01:40:44;13.55;;;5.07;;
39032;SDS011;24794;51.982;5.878;2022-11-23T01:41:45;17.23;;;4.95;;
39032;SDS011;24794;51.982;5.878;2022-11-23T01:42:56;12.00;;;4.85;;
39032;SDS011;24794;51.982;5.878;2022-11-23T01:43:58;11.48;;;4.53;;
39032;SDS011;24794;51.982;5.878;2022-11-23T01:46:41;12.55;;;4.47;;
39032;SDS011;24794;51.982;5.878;2022-11-23T01:47:42;8.52;;;4.38;;
39032;SDS011;24794;51.982;5.878;2022-11-23T01:49:01;16.27;;;5.07;;
39032;SDS011;24794;51.982;5.878;2022-11-23T01:50:05;13.40;;;4.50;;
39032;SDS011;24794;51.982;5.878;2022-11-23T01:51:08;13.75;;;5.03;;
39032;SDS011;24794;51.982;5.878;2022-11-23T01:52:14;11.55;;;4.35;;
39032;SDS011;24794;51.982;5.878;2022-11-23T01:53:19;14.65;;;4.70;;
39032;SDS011;24794;51.982;5.878;2022-11-23T01:54:21;13.23;;;5.25;;
39032;SDS011;24794;51.982;5.878;2022-11-23T01:55:26;9.52;;;4.43;;
39032;SDS011;24794;51.982;5.878;2022-11-23T01:56:32;13.10;;;5.72;;
39032;SDS011;24794;51.982;5.878;2022-11-23T01:57:37;16.15;;;4.63;;
39032;SDS011;24794;51.982;5.878;2022-11-23T01:58:41;17.92;;;5.40;;
39032;SDS011;24794;51.982;5.878;2022-11-23T01:59:45;11.60;;;4.60;;
39032;SDS011;24794;51.982;5.878;2022-11-23T02:00:46;11.05;;;4.40;;
39032;SDS011;24794;51.982;5.878;2022-11-23T02:01:48;16.95;;;4.70;;
39032;SDS011;24794;51.982;5.878;2022-11-23T02:02:50;12.25;;;4.43;;
39032;SDS011;24794;51.982;5.878;2022-11-23T02:03:55;10.15;;;4.03;;
39032;SDS011;24794;51.982;5.878;2022-11-23T02:04:59;13.65;;;4.72;;
39032;SDS011;24794;51.982;5.878;2022-11-23T02:06:03;11.05;;;3.80;;
39032;SDS011;24794;51.982;5.878;2022-11-23T02:07:08;12.77;;;4.15;;
39032;SDS011;24794;51.982;5.878;2022-11-23T02:08:10;14.98;;;4.03;;
39032;SDS011;24794;51.982;5.878;2022-11-23T02:09:13;15.80;;;4.78;;
39032;SDS011;24794;51.982;5.878;2022-11-23T02:10:15;14.77;;;4.50;;
39032;SDS011;24794;51.982;5.878;2022-11-23T02:11:16;11.27;;;3.75;;
39032;SDS011;24794;51.982;5.878;2022-11-23T02:12:16;15.18;;;3.80;;
39032;SDS011;24794;51.982;5.878;2022-11-23T02:13:17;15.73;;;4.05;;
39032;SDS011;24794;51.982;5.878;2022-11-23T02:14:18;12.43;;;5.30;;
39032;SDS011;24794;51.982;5.878;2022-11-23T02:15:18;13.73;;;4.25;;
39032;SDS011;24794;51.982;5.878;2022-11-23T02:16:19;12.15;;;3.58;;
39032;SDS011;24794;51.982;5.878;2022-11-23T02:17:20;11.10;;;3.53;;
39032;SDS011;24794;51.982;5.878;2022-11-23T02:18:24;7.88;;;3.08;;
39032;SDS011;24794;51.982;5.878;2022-11-23T02:20:46;12.75;;;3.97;;
39032;SDS011;24794;51.982;5.878;2022-11-23T02:21:48;10.43;;;3.60;;
39032;SDS011;24794;51.982;5.878;2022-11-23T02:23:00;11.23;;;3.60;;
39032;SDS011;24794;51.982;5.878;2022-11-23T02:24:13;10.82;;;3.55;;
39032;SDS011;24794;51.982;5.878;2022-11-23T02:25:27;11.32;;;3.28;;
39032;SDS011;24794;51.982;5.878;2022-11-23T02:26:44;15.38;;;3.63;;
39032;SDS011;24794;51.982;5.878;2022-11-23T02:27:45;13.00;;;3.67;;
39032;SDS011;24794;51.982;5.878;2022-11-23T02:28:47;17.75;;;3.75;;
39032;SDS011;24794;51.982;5.878;2022-11-23T02:29:51;15.90;;;3.50;;
39032;SDS011;24794;51.982;5.878;2022-11-23T02:30:54;12.25;;;3.40;;
39032;SDS011;24794;51.982;5.878;2022-11-23T02:31:55;11.68;;;3.35;;
39032;SDS011;24794;51.982;5.878;2022-11-23T02:32:55;9.00;;;2.83;;
39032;SDS011;24794;51.982;5.878;2022-11-23T02:33:56;11.32;;;3.28;;
39032;SDS011;24794;51.982;5.878;2022-11-23T02:34:57;12.52;;;3.38;;
39032;SDS011;24794;51.982;5.878;2022-11-23T02:35:58;9.73;;;3.50;;
39032;SDS011;24794;51.982;5.878;2022-11-23T02:37:00;11.52;;;3.38;;
39032;SDS011;24794;51.982;5.878;2022-11-23T02:38:01;11.07;;;3.60;;
39032;SDS011;24794;51.982;5.878;2022-11-23T02:39:28;11.32;;;3.00;;
39032;SDS011;24794;51.982;5.878;2022-11-23T02:40:30;10.23;;;3.15;;
39032;SDS011;24794;51.982;5.878;2022-11-23T02:41:40;11.20;;;3.60;;
39032;SDS011;24794;51.982;5.878;2022-11-23T02:42:45;10.68;;;3.38;;
39032;SDS011;24794;51.982;5.878;2022-11-23T02:43:48;11.30;;;2.72;;
39032;SDS011;24794;51.982;5.878;2022-11-23T02:46:09;10.88;;;3.55;;
39032;SDS011;24794;51.982;5.878;2022-11-23T02:47:10;14.90;;;3.50;;
39032;SDS011;24794;51.982;5.878;2022-11-23T02:48:10;16.88;;;3.92;;
39032;SDS011;24794;51.982;5.878;2022-11-23T02:49:11;8.05;;;3.05;;
39032;SDS011;24794;51.982;5.878;2022-11-23T02:50:12;9.63;;;2.80;;
39032;SDS011;24794;51.982;5.878;2022-11-23T02:51:13;15.95;;;3.90;;
39032;SDS011;24794;51.982;5.878;2022-11-23T02:52:14;12.70;;;3.50;;
39032;SDS011;24794;51.982;5.878;2022-11-23T02:53:16;10.07;;;3.63;;
39032;SDS011;24794;51.982;5.878;2022-11-23T02:54:16;14.77;;;4.47;;
39032;SDS011;24794;51.982;5.878;2022-11-23T02:55:17;10.98;;;2.70;;
39032;SDS011;24794;51.982;5.878;2022-11-23T02:56:17;18.35;;;4.65;;
39032;SDS011;24794;51.982;5.878;2022-11-23T02:57:18;8.57;;;3.22;;
39032;SDS011;24794;51.982;5.878;2022-11-23T02:58:19;13.82;;;3.60;;
39032;SDS011;24794;51.982;5.878;2022-11-23T02:59:19;14.73;;;3.22;;
39032;SDS011;24794;51.982;5.878;2022-11-23T03:00:20;12.85;;;3.83;;
39032;SDS011;24794;51.982;5.878;2022-11-23T03:01:21;12.07;;;3.10;;
39032;SDS011;24794;51.982;5.878;2022-11-23T03:02:21;8.77;;;3.40;;
39032;SDS011;24794;51.982;5.878;2022-11-23T03:03:22;15.10;;;3.03;;
39032;SDS011;24794;51.982;5.878;2022-11-23T03:04:22;14.13;;;3.50;;
39032;SDS011;24794;51.982;5.878;2022-11-23T03:05:23;12.40;;;3.58;;
39032;SDS011;24794;51.982;5.878;2022-11-23T03:06:23;12.65;;;3.25;;
39032;SDS011;24794;51.982;5.878;2022-11-23T03:07:24;11.45;;;3.90;;
39032;SDS011;24794;51.982;5.878;2022-11-23T03:08:24;11.50;;;3.67;;
39032;SDS011;24794;51.982;5.878;2022-11-23T03:09:25;17.60;;;4.25;;
39032;SDS011;24794;51.982;5.878;2022-11-23T03:10:27;14.18;;;3.45;;
39032;SDS011;24794;51.982;5.878;2022-11-23T03:11:27;10.82;;;3.35;;
39032;SDS011;24794;51.982;5.878;2022-11-23T03:12:28;11.65;;;3.47;;
39032;SDS011;24794;51.982;5.878;2022-11-23T03:13:29;9.50;;;3.13;;
39032;SDS011;24794;51.982;5.878;2022-11-23T03:14:29;14.07;;;3.00;;
39032;SDS011;24794;51.982;5.878;2022-11-23T03:15:30;12.02;;;3.42;;
39032;SDS011;24794;51.982;5.878;2022-11-23T03:16:31;12.20;;;3.40;;
39032;SDS011;24794;51.982;5.878;2022-11-23T03:17:35;12.20;;;3.38;;
39032;SDS011;24794;51.982;5.878;2022-11-23T03:18:36;11.02;;;3.03;;
39032;SDS011;24794;51.982;5.878;2022-11-23T03:19:37;11.55;;;2.90;;
39032;SDS011;24794;51.982;5.878;2022-11-23T03:20:37;8.90;;;2.83;;
39032;SDS011;24794;51.982;5.878;2022-11-23T03:21:38;8.13;;;2.88;;
39032;SDS011;24794;51.982;5.878;2022-11-23T03:22:38;9.82;;;3.03;;
39032;SDS011;24794;51.982;5.878;2022-11-23T03:23:39;10.68;;;3.08;;
39032;SDS011;24794;51.982;5.878;2022-11-23T03:24:39;6.10;;;2.88;;
39032;SDS011;24794;51.982;5.878;2022-11-23T03:25:40;11.63;;;3.20;;
39032;SDS011;24794;51.982;5.878;2022-11-23T03:26:40;11.23;;;2.70;;
39032;SDS011;24794;51.982;5.878;2022-11-23T03:27:41;9.30;;;2.63;;
39032;SDS011;24794;51.982;5.878;2022-11-23T03:28:42;6.72;;;2.08;;
39032;SDS011;24794;51.982;5.878;2022-11-23T03:29:42;5.57;;;2.10;;
39032;SDS011;24794;51.982;5.878;2022-11-23T03:30:43;4.75;;;1.73;;
39032;SDS011;24794;51.982;5.878;2022-11-23T03:31:44;7.65;;;2.20;;
39032;SDS011;24794;51.982;5.878;2022-11-23T03:32:44;10.05;;;2.15;;
39032;SDS011;24794;51.982;5.878;2022-11-23T03:33:45;8.07;;;2.22;;
39032;SDS011;24794;51.982;5.878;2022-11-23T03:34:45;10.38;;;2.20;;
39032;SDS011;24794;51.982;5.878;2022-11-23T03:35:46;9.02;;;2.05;;
39032;SDS011;24794;51.982;5.878;2022-11-23T03:36:47;10.15;;;2.42;;
39032;SDS011;24794;51.982;5.878;2022-11-23T03:37:47;8.73;;;2.30;;
39032;SDS011;24794;51.982;5.878;2022-11-23T03:38:48;10.93;;;2.08;;
39032;SDS011;24794;51.982;5.878;2022-11-23T03:39:48;6.88;;;2.20;;
39032;SDS011;24794;51.982;5.878;2022-11-23T03:40:49;6.10;;;1.40;;
39032;SDS011;24794;51.982;5.878;2022-11-23T03:41:50;8.73;;;1.73;;
39032;SDS011;24794;51.982;5.878;2022-11-23T03:42:50;11.05;;;2.33;;
39032;SDS011;24794;51.982;5.878;2022-11-23T03:43:51;9.93;;;2.03;;
39032;SDS011;24794;51.982;5.878;2022-11-23T03:44:52;9.48;;;2.33;;
39032;SDS011;24794;51.982;5.878;2022-11-23T03:45:52;5.70;;;1.85;;
39032;SDS011;24794;51.982;5.878;2022-11-23T03:46:53;6.47;;;1.90;;
39032;SDS011;24794;51.982;5.878;2022-11-23T03:47:53;6.95;;;1.92;;
39032;SDS011;24794;51.982;5.878;2022-11-23T03:48:54;10.25;;;2.17;;
39032;SDS011;24794;51.982;5.878;2022-11-23T03:49:55;15.57;;;3.05;;
39032;SDS011;24794;51.982;5.878;2022-11-23T03:50:56;11.45;;;2.53;;
39032;SDS011;24794;51.982;5.878;2022-11-23T03:51:56;10.30;;;2.15;;
39032;SDS011;24794;51.982;5.878;2022-11-23T03:52:57;14.50;;;2.83;;
39032;SDS011;24794;51.982;5.878;2022-11-23T03:53:58;9.35;;;1.98;;
39032;SDS011;24794;51.982;5.878;2022-11-23T03:54:59;9.55;;;2.22;;
39032;SDS011;24794;51.982;5.878;2022-11-23T03:55:59;11.43;;;3.13;;
39032;SDS011;24794;51.982;5.878;2022-11-23T03:57:00;8.10;;;1.98;;
39032;SDS011;24794;51.982;5.878;2022-11-23T03:58:01;12.55;;;2.65;;
39032;SDS011;24794;51.982;5.878;2022-11-23T03:59:01;12.27;;;2.88;;
39032;SDS011;24794;51.982;5.878;2022-11-23T04:00:02;13.48;;;2.17;;
39032;SDS011;24794;51.982;5.878;2022-11-23T04:01:03;9.18;;;1.83;;
39032;SDS011;24794;51.982;5.878;2022-11-23T04:02:04;10.13;;;2.00;;
39032;SDS011;24794;51.982;5.878;2022-11-23T04:03:06;6.38;;;2.08;;
39032;SDS011;24794;51.982;5.878;2022-11-23T04:04:07;8.88;;;2.45;;
39032;SDS011;24794;51.982;5.878;2022-11-23T04:05:08;11.43;;;2.40;;
39032;SDS011;24794;51.982;5.878;2022-11-23T04:06:08;10.43;;;2.20;;
39032;SDS011;24794;51.982;5.878;2022-11-23T04:07:09;9.45;;;2.00;;
39032;SDS011;24794;51.982;5.878;2022-11-23T04:08:10;8.60;;;1.77;;
39032;SDS011;24794;51.982;5.878;2022-11-23T04:09:11;11.57;;;2.28;;
39032;SDS011;24794;51.982;5.878;2022-11-23T04:10:15;14.35;;;2.75;;
39032;SDS011;24794;51.982;5.878;2022-11-23T04:11:17;10.40;;;2.17;;
39032;SDS011;24794;51.982;5.878;2022-11-23T04:12:18;9.27;;;2.05;;
39032;SDS011;24794;51.982;5.878;2022-11-23T04:13:18;10.80;;;2.28;;
39032;SDS011;24794;51.982;5.878;2022-11-23T04:14:19;12.30;;;2.38;;
39032;SDS011;24794;51.982;5.878;2022-11-23T04:15:19;9.18;;;2.25;;
39032;SDS011;24794;51.982;5.878;2022-11-23T04:16:20;7.57;;;2.10;;
39032;SDS011;24794;51.982;5.878;2022-11-23T04:17:21;10.15;;;2.15;;
39032;SDS011;24794;51.982;5.878;2022-11-23T04:18:21;8.50;;;2.38;;
39032;SDS011;24794;51.982;5.878;2022-11-23T04:19:22;11.75;;;2.10;;
39032;SDS011;24794;51.982;5.878;2022-11-23T04:20:22;7.90;;;1.98;;
39032;SDS011;24794;51.982;5.878;2022-11-23T04:21:23;10.57;;;2.35;;
39032;SDS011;24794;51.982;5.878;2022-11-23T04:22:23;8.38;;;2.40;;
39032;SDS011;24794;51.982;5.878;2022-11-23T04:23:24;11.05;;;2.70;;
39032;SDS011;24794;51.982;5.878;2022-11-23T04:24:25;10.52;;;2.28;;
39032;SDS011;24794;51.982;5.878;2022-11-23T04:25:25;10.30;;;2.78;;
39032;SDS011;24794;51.982;5.878;2022-11-23T04:26:26;12.27;;;2.78;;
39032;SDS011;24794;51.982;5.878;2022-11-23T04:27:26;15.10;;;3.33;;
39032;SDS011;24794;51.982;5.878;2022-11-23T04:28:27;12.30;;;2.45;;
39032;SDS011;24794;51.982;5.878;2022-11-23T04:29:28;11.35;;;2.63;;
39032;SDS011;24794;51.982;5.878;2022-11-23T04:30:28;13.90;;;2.70;;
39032;SDS011;24794;51.982;5.878;2022-11-23T04:31:29;9.20;;;2.17;;
39032;SDS011;24794;51.982;5.878;2022-11-23T04:32:29;9.02;;;2.10;;
39032;SDS011;24794;51.982;5.878;2022-11-23T04:33:30;9.32;;;2.30;;
39032;SDS011;24794;51.982;5.878;2022-11-23T04:34:30;13.32;;;2.22;;
39032;SDS011;24794;51.982;5.878;2022-11-23T04:35:31;12.93;;;2.38;;
39032;SDS011;24794;51.982;5.878;2022-11-23T04:36:33;8.50;;;1.98;;
39032;SDS011;24794;51.982;5.878;2022-11-23T04:37:33;7.18;;;1.77;;
39032;SDS011;24794;51.982;5.878;2022-11-23T04:38:34;10.63;;;2.30;;
39032;SDS011;24794;51.982;5.878;2022-11-23T04:39:34;8.80;;;2.40;;
39032;SDS011;24794;51.982;5.878;2022-11-23T04:40:35;11.13;;;2.25;;
39032;SDS011;24794;51.982;5.878;2022-11-23T04:41:36;5.57;;;1.88;;
39032;SDS011;24794;51.982;5.878;2022-11-23T04:42:36;9.70;;;2.30;;
39032;SDS011;24794;51.982;5.878;2022-11-23T04:43:37;7.00;;;1.75;;
39032;SDS011;24794;51.982;5.878;2022-11-23T04:44:37;8.70;;;1.60;;
39032;SDS011;24794;51.982;5.878;2022-11-23T04:45:39;11.98;;;2.05;;
39032;SDS011;24794;51.982;5.878;2022-11-23T04:46:39;7.13;;;1.80;;
39032;SDS011;24794;51.982;5.878;2022-11-23T04:47:40;9.27;;;2.00;;
39032;SDS011;24794;51.982;5.878;2022-11-23T04:48:40;10.23;;;2.08;;
39032;SDS011;24794;51.982;5.878;2022-11-23T04:49:41;7.38;;;2.00;;
39032;SDS011;24794;51.982;5.878;2022-11-23T04:50:41;5.63;;;2.00;;
39032;SDS011;24794;51.982;5.878;2022-11-23T04:51:42;8.80;;;2.10;;
39032;SDS011;24794;51.982;5.878;2022-11-23T04:52:43;6.57;;;1.80;;
39032;SDS011;24794;51.982;5.878;2022-11-23T04:53:43;7.75;;;2.00;;
39032;SDS011;24794;51.982;5.878;2022-11-23T04:54:44;7.80;;;1.92;;
39032;SDS011;24794;51.982;5.878;2022-11-23T04:55:45;9.88;;;2.10;;
39032;SDS011;24794;51.982;5.878;2022-11-23T04:56:46;8.80;;;1.95;;
39032;SDS011;24794;51.982;5.878;2022-11-23T04:57:46;10.35;;;2.25;;
39032;SDS011;24794;51.982;5.878;2022-11-23T04:58:47;8.77;;;2.30;;
39032;SDS011;24794;51.982;5.878;2022-11-23T04:59:48;15.15;;;2.50;;
39032;SDS011;24794;51.982;5.878;2022-11-23T05:00:48;15.25;;;2.78;;
39032;SDS011;24794;51.982;5.878;2022-11-23T05:01:49;12.25;;;2.55;;
39032;SDS011;24794;51.982;5.878;2022-11-23T05:02:51;11.63;;;2.63;;
39032;SDS011;24794;51.982;5.878;2022-11-23T05:03:51;10.77;;;2.47;;
39032;SDS011;24794;51.982;5.878;2022-11-23T05:04:52;11.15;;;2.10;;
39032;SDS011;24794;51.982;5.878;2022-11-23T05:05:53;9.50;;;2.47;;
39032;SDS011;24794;51.982;5.878;2022-11-23T05:06:56;8.35;;;2.20;;
39032;SDS011;24794;51.982;5.878;2022-11-23T05:07:57;14.00;;;2.13;;
39032;SDS011;24794;51.982;5.878;2022-11-23T05:08:58;11.60;;;2.30;;
39032;SDS011;24794;51.982;5.878;2022-11-23T05:09:58;9.00;;;1.95;;
39032;SDS011;24794;51.982;5.878;2022-11-23T05:10:59;9.13;;;2.25;;
39032;SDS011;24794;51.982;5.878;2022-11-23T05:11:59;8.30;;;1.70;;
39032;SDS011;24794;51.982;5.878;2022-11-23T05:13:00;12.18;;;2.08;;
39032;SDS011;24794;51.982;5.878;2022-11-23T05:14:01;13.43;;;2.30;;
39032;SDS011;24794;51.982;5.878;2022-11-23T05:15:03;6.95;;;1.95;;
39032;SDS011;24794;51.982;5.878;2022-11-23T05:16:04;11.18;;;2.47;;
39032;SDS011;24794;51.982;5.878;2022-11-23T05:17:05;12.15;;;2.38;;
39032;SDS011;24794;51.982;5.878;2022-11-23T05:18:06;9.50;;;2.28;;
39032;SDS011;24794;51.982;5.878;2022-11-23T05:19:07;4.93;;;1.58;;
39032;SDS011;24794;51.982;5.878;2022-11-23T05:20:08;11.57;;;2.28;;
39032;SDS011;24794;51.982;5.878;2022-11-23T05:21:09;8.90;;;1.80;;
39032;SDS011;24794;51.982;5.878;2022-11-23T05:22:10;9.10;;;1.92;;
39032;SDS011;24794;51.982;5.878;2022-11-23T05:23:10;13.25;;;2.20;;
39032;SDS011;24794;51.982;5.878;2022-11-23T05:24:11;12.77;;;2.50;;
39032;SDS011;24794;51.982;5.878;2022-11-23T05:25:11;9.52;;;2.15;;
39032;SDS011;24794;51.982;5.878;2022-11-23T05:26:12;11.13;;;2.00;;
39032;SDS011;24794;51.982;5.878;2022-11-23T05:27:12;9.40;;;1.90;;
39032;SDS011;24794;51.982;5.878;2022-11-23T05:28:14;7.20;;;1.85;;
39032;SDS011;24794;51.982;5.878;2022-11-23T05:29:16;11.40;;;2.53;;
39032;SDS011;24794;51.982;5.878;2022-11-23T05:30:17;14.85;;;2.42;;
39032;SDS011;24794;51.982;5.878;2022-11-23T05:31:18;11.60;;;2.53;;
39032;SDS011;24794;51.982;5.878;2022-11-23T05:32:18;10.43;;;1.95;;
39032;SDS011;24794;51.982;5.878;2022-11-23T05:33:19;7.93;;;1.73;;
39032;SDS011;24794;51.982;5.878;2022-11-23T05:34:20;10.07;;;2.10;;
39032;SDS011;24794;51.982;5.878;2022-11-23T05:35:20;9.70;;;2.13;;
39032;SDS011;24794;51.982;5.878;2022-11-23T05:36:21;10.02;;;2.20;;
39032;SDS011;24794;51.982;5.878;2022-11-23T05:37:21;7.57;;;1.90;;
39032;SDS011;24794;51.982;5.878;2022-11-23T05:38:22;11.38;;;2.00;;
39032;SDS011;24794;51.982;5.878;2022-11-23T05:39:22;6.43;;;1.80;;
39032;SDS011;24794;51.982;5.878;2022-11-23T05:40:23;8.23;;;1.70;;
39032;SDS011;24794;51.982;5.878;2022-11-23T05:41:24;6.40;;;1.52;;
39032;SDS011;24794;51.982;5.878;2022-11-23T05:42:25;7.35;;;1.77;;
39032;SDS011;24794;51.982;5.878;2022-11-23T05:43:25;7.00;;;1.75;;
39032;SDS011;24794;51.982;5.878;2022-11-23T05:44:26;7.28;;;1.80;;
39032;SDS011;24794;51.982;5.878;2022-11-23T05:45:26;8.10;;;2.20;;
39032;SDS011;24794;51.982;5.878;2022-11-23T05:46:27;10.70;;;1.63;;
39032;SDS011;24794;51.982;5.878;2022-11-23T05:47:28;10.25;;;1.98;;
39032;SDS011;24794;51.982;5.878;2022-11-23T05:48:28;8.45;;;1.77;;
39032;SDS011;24794;51.982;5.878;2022-11-23T05:49:29;9.70;;;2.00;;
39032;SDS011;24794;51.982;5.878;2022-11-23T05:50:30;13.23;;;2.25;;
39032;SDS011;24794;51.982;5.878;2022-11-23T05:51:30;12.30;;;2.33;;
39032;SDS011;24794;51.982;5.878;2022-11-23T05:52:31;6.85;;;1.60;;
39032;SDS011;24794;51.982;5.878;2022-11-23T05:53:32;9.93;;;2.10;;
39032;SDS011;24794;51.982;5.878;2022-11-23T05:54:33;8.38;;;1.88;;
39032;SDS011;24794;51.982;5.878;2022-11-23T05:55:33;10.05;;;1.45;;
39032;SDS011;24794;51.982;5.878;2022-11-23T05:56:34;7.68;;;1.65;;
39032;SDS011;24794;51.982;5.878;2022-11-23T05:57:34;8.50;;;1.25;;
39032;SDS011;24794;51.982;5.878;2022-11-23T05:58:35;9.95;;;2.28;;
39032;SDS011;24794;51.982;5.878;2022-11-23T05:59:35;9.60;;;1.65;;
39032;SDS011;24794;51.982;5.878;2022-11-23T06:00:36;9.13;;;1.65;;
39032;SDS011;24794;51.982;5.878;2022-11-23T06:01:37;6.35;;;1.60;;
39032;SDS011;24794;51.982;5.878;2022-11-23T06:02:38;7.07;;;1.40;;
39032;SDS011;24794;51.982;5.878;2022-11-23T06:03:39;10.52;;;1.90;;
39032;SDS011;24794;51.982;5.878;2022-11-23T06:04:39;7.65;;;1.55;;
39032;SDS011;24794;51.982;5.878;2022-11-23T06:05:40;5.53;;;1.20;;
39032;SDS011;24794;51.982;5.878;2022-11-23T06:06:40;7.18;;;1.40;;
39032;SDS011;24794;51.982;5.878;2022-11-23T06:07:41;12.23;;;2.20;;
39032;SDS011;24794;51.982;5.878;2022-11-23T06:08:42;10.65;;;2.00;;
39032;SDS011;24794;51.982;5.878;2022-11-23T06:09:42;11.43;;;2.10;;
39032;SDS011;24794;51.982;5.878;2022-11-23T06:10:43;6.30;;;1.33;;